createdAt,value
2023-02-19T00:00:01.864Z,68
2023-02-19T00:04:02.516Z,68
2023-02-19T00:08:01.184Z,68
2023-02-19T00:12:01.198Z,69
2023-02-19T00:16:04.705Z,69
2023-02-19T00:20:01.082Z,69
2023-02-19T00:24:02.724Z,69
2023-02-19T00:28:01.124Z,69
2023-02-19T00:32:01.431Z,69
2023-02-19T00:36:01.641Z,69
2023-02-19T00:40:01.332Z,69
2023-02-19T00:44:02.134Z,69
2023-02-19T00:48:01.324Z,69
2023-02-19T00:52:01.224Z,69
2023-02-19T00:56:01.256Z,69
2023-02-19T01:00:01.171Z,69
2023-02-19T01:04:01.219Z,70
2023-02-19T01:08:01.121Z,70
2023-02-19T01:12:01.231Z,70
2023-02-19T01:16:02.860Z,70
2023-02-19T01:20:01.332Z,70
2023-02-19T01:24:01.131Z,70
2023-02-19T01:28:01.194Z,70
2023-02-19T01:32:01.346Z,70
2023-02-19T01:36:02.638Z,70
2023-02-19T01:40:01.113Z,70
2023-02-19T01:44:02.532Z,70
2023-02-19T01:48:04.726Z,70
2023-02-19T01:52:04.235Z,70
2023-02-19T01:56:01.753Z,70
2023-02-19T02:00:03.309Z,70
2023-02-19T02:04:01.249Z,70
2023-02-19T02:08:12.046Z,70
2023-02-19T02:12:01.121Z,70
2023-02-19T02:16:05.615Z,70
2023-02-19T02:20:08.085Z,70
2023-02-19T02:24:10.351Z,70
2023-02-19T02:28:10.806Z,70
2023-02-19T02:32:03.451Z,70
2023-02-19T02:36:04.586Z,70
2023-02-19T02:40:01.310Z,70
2023-02-19T02:44:01.121Z,70
2023-02-19T02:48:03.976Z,70
2023-02-19T02:52:11.373Z,70
2023-02-19T02:56:02.254Z,70
2023-02-19T03:00:01.746Z,70
2023-02-19T03:04:03.708Z,70
2023-02-19T03:08:05.182Z,70
2023-02-19T03:12:12.510Z,69
2023-02-19T03:16:14.030Z,69
2023-02-19T03:20:04.567Z,69
2023-02-19T03:24:12.434Z,69
2023-02-19T03:28:03.135Z,69
2023-02-19T03:32:03.701Z,69
2023-02-19T03:36:04.565Z,69
2023-02-19T03:40:01.141Z,69
2023-02-19T03:44:06.989Z,69
2023-02-19T03:48:06.882Z,69
2023-02-19T03:52:04.553Z,70
2023-02-19T03:56:05.840Z,70
2023-02-19T04:00:04.228Z,70
2023-02-19T04:04:03.679Z,69
2023-02-19T04:08:04.012Z,69
2023-02-19T04:12:01.672Z,69
2023-02-19T04:16:03.586Z,69
2023-02-19T04:20:02.412Z,69
2023-02-19T04:24:03.190Z,69
2023-02-19T04:28:01.887Z,69
2023-02-19T04:32:01.406Z,69
2023-02-19T04:36:01.184Z,69
2023-02-19T04:40:01.213Z,69
2023-02-19T04:44:01.238Z,69
2023-02-19T04:48:01.376Z,69
2023-02-19T04:52:01.052Z,69
2023-02-19T04:56:04.872Z,69
2023-02-19T05:00:01.268Z,69
2023-02-19T05:04:01.264Z,69
2023-02-19T05:08:01.107Z,69
2023-02-19T05:12:01.519Z,69
2023-02-19T05:16:02.633Z,69
2023-02-19T05:20:01.198Z,69
2023-02-19T05:24:01.154Z,69
2023-02-19T05:28:11.065Z,69
2023-02-19T05:32:01.346Z,68
2023-02-19T05:36:04.161Z,68
2023-02-19T05:40:01.074Z,68
2023-02-19T05:44:01.222Z,68
2023-02-19T05:48:01.609Z,68
2023-02-19T05:52:01.555Z,68
2023-02-19T05:56:01.476Z,68
2023-02-19T06:00:01.653Z,68
2023-02-19T06:04:01.169Z,68
2023-02-19T06:08:01.246Z,68
2023-02-19T06:12:01.173Z,69
2023-02-19T06:16:03.103Z,69
2023-02-19T06:20:01.179Z,69
2023-02-19T06:24:03.764Z,69
2023-02-19T06:28:01.111Z,69
2023-02-19T06:32:01.508Z,69
2023-02-19T06:36:02.033Z,69
2023-02-19T06:40:01.151Z,69
2023-02-19T06:44:01.156Z,68
2023-02-19T06:48:01.349Z,68
2023-02-19T06:52:02.797Z,68
2023-02-19T06:56:02.352Z,68
2023-02-19T07:00:01.192Z,68
2023-02-19T07:04:01.602Z,68
2023-02-19T07:08:01.172Z,68
2023-02-19T07:12:01.437Z,68
2023-02-19T07:16:03.755Z,68
2023-02-19T07:20:01.328Z,68
2023-02-19T07:24:01.302Z,68
2023-02-19T07:28:01.285Z,68
2023-02-19T07:32:01.290Z,67
2023-02-19T07:36:01.405Z,67
2023-02-19T07:40:01.445Z,67
2023-02-19T07:44:01.342Z,67
2023-02-19T07:48:01.200Z,67
2023-02-19T07:52:01.240Z,67
2023-02-19T07:56:01.811Z,67
2023-02-19T08:00:01.688Z,67
2023-02-19T08:04:01.067Z,67
2023-02-19T08:08:01.453Z,67
2023-02-19T08:12:11.047Z,67
2023-02-19T08:16:26.862Z,67
2023-02-19T08:20:01.094Z,67
2023-02-19T08:24:01.289Z,67
2023-02-19T08:28:01.133Z,67
2023-02-19T08:32:01.395Z,67
2023-02-19T08:36:03.983Z,67
2023-02-19T08:40:01.347Z,67
2023-02-19T08:44:01.128Z,67
2023-02-19T08:48:01.566Z,67
2023-02-19T08:52:01.046Z,67
2023-02-19T08:56:03.806Z,67
2023-02-19T09:00:01.204Z,67
2023-02-19T09:04:01.326Z,67
2023-02-19T09:08:01.128Z,67
2023-02-19T09:12:03.427Z,67
2023-02-19T09:16:02.020Z,67
2023-02-19T09:20:01.423Z,67
2023-02-19T09:24:01.153Z,67
2023-02-19T09:28:01.226Z,67
2023-02-19T09:32:01.505Z,67
2023-02-19T09:36:01.700Z,67
2023-02-19T09:40:01.085Z,67
2023-02-19T09:44:03.338Z,67
2023-02-19T09:48:01.429Z,67
2023-02-19T09:52:03.698Z,67
2023-02-19T09:56:01.092Z,67
2023-02-19T10:00:03.780Z,67
2023-02-19T10:04:01.111Z,67
2023-02-19T10:08:03.767Z,67
2023-02-19T10:12:01.262Z,67
2023-02-19T10:16:02.383Z,67
2023-02-19T10:20:03.479Z,67
2023-02-19T10:24:02.797Z,62
2023-02-19T10:28:01.392Z,62
2023-02-19T10:32:11.130Z,62
2023-02-19T10:36:03.294Z,62
2023-02-19T10:40:01.519Z,62
2023-02-19T10:44:04.170Z,58
2023-02-19T10:48:02.212Z,58
2023-02-19T10:52:02.416Z,58
2023-02-19T10:56:05.784Z,58
2023-02-19T11:00:02.930Z,58
2023-02-19T11:04:10.875Z,58
2023-02-19T11:08:01.404Z,58
2023-02-19T11:12:03.401Z,53
2023-02-19T11:16:01.371Z,53
2023-02-19T11:20:04.266Z,53
2023-02-19T11:24:02.961Z,53
2023-02-19T11:28:06.053Z,53
2023-02-19T11:32:11.585Z,52
2023-02-19T11:36:10.968Z,52
2023-02-19T11:40:01.145Z,52
2023-02-19T11:44:07.681Z,52
2023-02-19T11:48:10.907Z,52
2023-02-19T11:52:09.153Z,51
2023-02-19T11:56:10.703Z,51
2023-02-19T12:00:10.910Z,51
2023-02-19T12:04:10.801Z,51
2023-02-19T12:08:09.969Z,51
2023-02-19T12:12:07.384Z,50
2023-02-19T12:16:10.861Z,50
2023-02-19T12:20:09.117Z,50
2023-02-19T12:24:11.453Z,50
2023-02-19T12:28:07.183Z,50
2023-02-19T12:32:13.892Z,49
2023-02-19T12:36:05.681Z,49
2023-02-19T12:40:10.542Z,49
2023-02-19T12:44:04.570Z,49
2023-02-19T12:48:04.478Z,49
2023-02-19T12:52:05.366Z,48
2023-02-19T12:56:04.363Z,48
2023-02-19T13:00:06.519Z,48
2023-02-19T13:04:11.000Z,47
2023-02-19T13:08:03.918Z,47
2023-02-19T13:12:03.694Z,46
2023-02-19T13:16:06.636Z,46
2023-02-19T13:20:07.037Z,46
2023-02-19T13:24:05.533Z,46
2023-02-19T13:28:07.031Z,46
2023-02-19T13:32:11.263Z,46
2023-02-19T13:36:07.462Z,46
2023-02-19T13:40:03.805Z,46
2023-02-19T13:44:02.479Z,46
2023-02-19T13:48:11.747Z,46
2023-02-19T13:52:01.865Z,46
2023-02-19T13:56:01.900Z,46
2023-02-19T14:00:01.278Z,46
2023-02-19T14:04:07.141Z,45
2023-02-19T14:08:01.205Z,45
2023-02-19T14:12:02.301Z,46
2023-02-19T14:16:01.252Z,46
2023-02-19T14:20:03.461Z,46
2023-02-19T14:24:01.929Z,45
2023-02-19T14:28:03.408Z,45
2023-02-19T14:32:04.289Z,43
2023-02-19T14:36:04.875Z,43
2023-02-19T14:40:01.951Z,43
2023-02-19T14:44:01.934Z,44
2023-02-19T14:48:01.519Z,44
2023-02-19T14:52:05.617Z,44
2023-02-19T14:56:01.252Z,44
2023-02-19T15:00:03.620Z,44
2023-02-19T15:04:01.589Z,46
2023-02-19T15:08:02.364Z,46
2023-02-19T15:12:02.148Z,46
2023-02-19T15:16:01.310Z,46
2023-02-19T15:20:04.864Z,46
2023-02-19T15:24:03.400Z,47
2023-02-19T15:28:10.971Z,47
2023-02-19T15:32:01.742Z,50
2023-02-19T15:36:03.664Z,50
2023-02-19T15:40:04.646Z,50
2023-02-19T15:44:07.672Z,52
2023-02-19T15:48:03.840Z,52
2023-02-19T15:52:03.244Z,53
2023-02-19T15:56:04.834Z,53
2023-02-19T16:00:06.371Z,53
2023-02-19T16:04:01.527Z,56
2023-02-19T16:08:05.616Z,56
2023-02-19T16:12:02.719Z,56
2023-02-19T16:16:06.199Z,56
2023-02-19T16:20:01.457Z,56
2023-02-19T16:24:04.511Z,56
2023-02-19T16:28:09.169Z,56
2023-02-19T16:32:02.694Z,56
2023-02-19T16:36:10.884Z,56
2023-02-19T16:40:11.707Z,56
2023-02-19T16:44:10.868Z,61
2023-02-19T16:48:03.318Z,61
2023-02-19T16:52:04.583Z,61
2023-02-19T16:56:01.487Z,61
2023-02-19T17:00:01.296Z,61
2023-02-19T17:04:03.494Z,62
2023-02-19T17:08:01.367Z,62
2023-02-19T17:12:01.460Z,63
2023-02-19T17:16:01.570Z,63
2023-02-19T17:20:01.148Z,63
2023-02-19T17:24:02.644Z,64
2023-02-19T17:28:01.336Z,64
2023-02-19T17:32:01.407Z,64
2023-02-19T17:36:01.522Z,64
2023-02-19T17:40:01.126Z,64
2023-02-19T17:44:01.157Z,65
2023-02-19T17:48:01.240Z,65
2023-02-19T17:52:01.204Z,66
2023-02-19T17:56:01.216Z,66
2023-02-19T18:00:01.324Z,66
2023-02-19T18:04:01.379Z,67
2023-02-19T18:08:01.334Z,67
2023-02-19T18:12:01.714Z,68
2023-02-19T18:16:01.313Z,68
2023-02-19T18:20:02.788Z,68
2023-02-19T18:24:01.394Z,68
2023-02-19T18:28:01.401Z,68
2023-02-19T18:32:01.532Z,68
2023-02-19T18:36:01.429Z,68
2023-02-19T18:40:01.746Z,68
2023-02-19T18:44:01.042Z,68
2023-02-19T18:48:01.289Z,68
2023-02-19T18:52:01.182Z,68
2023-02-19T18:56:04.438Z,68
2023-02-19T19:00:01.201Z,68
2023-02-19T19:04:01.476Z,68
2023-02-19T19:08:01.495Z,68
2023-02-19T19:12:01.593Z,68
2023-02-19T19:16:01.164Z,68
2023-02-19T19:20:01.180Z,68
2023-02-19T19:24:01.323Z,68
2023-02-19T19:28:01.166Z,68
2023-02-19T19:32:01.148Z,68
2023-02-19T19:36:01.315Z,68
2023-02-19T19:40:03.068Z,68
2023-02-19T19:44:01.575Z,68
2023-02-19T19:48:01.181Z,68
2023-02-19T19:52:01.468Z,73
2023-02-19T19:56:01.575Z,73
2023-02-19T20:00:01.750Z,73
2023-02-19T20:04:01.094Z,73
2023-02-19T20:08:01.255Z,73
2023-02-19T20:12:02.110Z,73
2023-02-19T20:16:01.332Z,73
2023-02-19T20:20:01.213Z,73
2023-02-19T20:24:01.617Z,75
2023-02-19T20:28:01.190Z,75
2023-02-19T20:32:03.028Z,76
2023-02-19T20:36:01.250Z,76
2023-02-19T20:40:01.382Z,76
2023-02-19T20:44:01.278Z,76
2023-02-19T20:48:01.770Z,76
2023-02-19T20:52:04.081Z,77
2023-02-19T20:56:01.260Z,77
2023-02-19T21:00:01.291Z,77
2023-02-19T21:04:01.215Z,77
2023-02-19T21:08:01.036Z,77
2023-02-19T21:12:01.445Z,78
2023-02-19T21:16:01.231Z,78
2023-02-19T21:20:01.188Z,78
2023-02-19T21:24:01.438Z,78
2023-02-19T21:28:01.307Z,78
2023-02-19T21:32:01.326Z,78
2023-02-19T21:36:01.400Z,78
2023-02-19T21:40:01.505Z,78
2023-02-19T21:44:01.247Z,77
2023-02-19T21:48:01.228Z,77
2023-02-19T21:52:01.218Z,77
2023-02-19T21:56:01.044Z,77
2023-02-19T22:00:01.344Z,77
2023-02-19T22:04:01.225Z,76
2023-02-19T22:08:01.290Z,76
2023-02-19T22:12:01.175Z,75
2023-02-19T22:16:01.424Z,75
2023-02-19T22:20:01.204Z,75
2023-02-19T22:24:01.846Z,75
2023-02-19T22:28:02.608Z,75
2023-02-19T22:32:01.560Z,75
2023-02-19T22:36:01.365Z,75
2023-02-19T22:40:01.206Z,75
2023-02-19T22:44:01.231Z,75
2023-02-19T22:48:01.384Z,75
2023-02-19T22:52:02.666Z,75
2023-02-19T22:56:01.163Z,75
2023-02-19T23:00:01.513Z,75
2023-02-19T23:04:01.508Z,75
2023-02-19T23:08:01.197Z,75
2023-02-19T23:12:01.688Z,75
2023-02-19T23:16:03.118Z,75
2023-02-19T23:20:01.604Z,75
2023-02-19T23:24:01.408Z,76
2023-02-19T23:28:01.203Z,76
2023-02-19T23:32:01.234Z,76
2023-02-19T23:36:01.313Z,76
2023-02-19T23:40:01.206Z,76
2023-02-19T23:44:01.177Z,76
2023-02-19T23:48:01.724Z,76
2023-02-19T23:52:01.256Z,77
2023-02-19T23:56:01.173Z,77
